Latest Weather Observations for Ernabella/Pukatja

IDS60801

Issued at 1:35 pm CST Wednesday 3 September 2014 (issued every 30 minutes, with the page automatically refreshed every 10 minutes)

About weather observations | Map of weather stations | Latest weather observations for SA | Other Formats
Station Details ID: 016097 Name: PUKATJA Lat: -26.26 Lon: 132.18 Height: 703.2 m
Data from the previous 72 hours. | See also: Recent months at Ernabella/Pukatja
Date/Time
CST
Temp
°C
App
Temp
°C
Dew
Point
Rel
Hum
%
Delta-T
°C
Wind Press
QNH
hPa
Press
MSL
hPa
Rain
since 9 am
mm
Dir
 
Spd
km/h
Gust
km/h
Spd
kts
Gust
kts
03/01:30pm 22.5 16.5 -1.6 20 10.9 N 20 33 11 18 1019.9 - 0.0
03/01:00pm 22.1 16.1 -1.2 21 10.6 N 20 28 11 15 1020.7 - 0.0
03/12:30pm 20.4 14.3 -2.0 22 9.9 N 20 28 11 15 1021.3 - 0.0
03/12:00pm 19.6 13.7 -2.1 23 9.5 N 19 26 10 14 1022.1 1019.6 0.0
03/11:30am 18.4 12.3 -3.7 22 9.3 N 19 26 10 14 1023.1 - 0.0
03/11:00am 17.0 10.3 -4.3 23 8.7 N 22 30 12 16 1023.5 - 0.0
03/10:30am 15.5 8.8 -4.4 25 8.0 N 22 28 12 15 1023.8 - 0.0
03/10:00am 15.4 10.0 -4.5 25 8.0 N 15 22 8 12 1023.8 - 0.0
03/09:30am 14.2 8.0 -4.5 27 7.4 N 19 26 10 14 1024.6 - 0.0
03/09:00am 13.3 7.5 -4.8 28 7.0 N 17 24 9 13 1024.8 1022.3 0.0
03/08:30am 11.5 5.3 -5.0 31 6.3 NNE 19 28 10 15 1024.8 - 0.0
03/08:00am 11.0 5.2 -5.0 32 6.0 NNE 17 26 9 14 1024.4 - 0.0
03/07:30am 10.4 4.2 -5.2 33 5.8 NNE 19 28 10 15 1024.2 - 0.0
03/07:00am 9.8 4.4 -4.9 35 5.5 NNE 15 19 8 10 1024.1 - 0.0
03/06:30am 9.9 4.4 -5.2 34 5.6 NNE 15 22 8 12 1023.6 - 0.0
03/06:00am 10.2 4.3 -5.3 33 5.7 NNE 17 22 9 12 1023.4 1020.9 0.0
03/05:30am 10.3 5.2 -5.2 33 5.8 NNE 13 19 7 10 1023.3 - 0.0
03/05:00am 10.1 5.4 -5.4 33 5.7 N 11 15 6 8 1023.1 - 0.0
03/04:30am 10.1 5.4 -5.4 33 5.7 N 11 15 6 8 1023.1 - 0.0
03/04:00am 8.9 4.6 -5.3 36 5.2 NNE 9 13 5 7 1023.4 - 0.0
03/03:30am 9.4 5.4 -5.3 35 5.4 NE 7 9 4 5 1023.5 - 0.0
03/03:00am 9.3 5.6 -5.0 36 5.3 ENE 6 9 3 5 1023.4 1020.9 0.0
03/02:30am 8.5 4.6 -5.0 38 5.0 E 7 9 4 5 1023.7 - 0.0
03/02:00am 8.2 3.5 -4.9 39 4.8 E 11 13 6 7 1024.2 - 0.0
03/01:30am 9.1 4.8 -5.2 36 5.3 E 9 13 5 7 1024.7 - 0.0
03/01:00am 9.5 4.8 -4.8 36 5.3 E 11 15 6 8 1024.6 - 0.0
03/12:30am 9.5 4.5 -4.4 37 5.2 E 13 17 7 9 1024.6 - 0.0
03/12:00am 9.2 4.6 -4.4 38 5.1 E 11 11 6 6 1024.8 1022.3 0.0
 
Date/Time
CST
Temp
°C
App
Temp
°C
Dew
Point
Rel
Hum
%
Delta-T
°C
Wind Press
QNH
hPa
Press
MSL
hPa
Rain
since 9 am
mm
Dir
 
Spd
km/h
Gust
km/h
Spd
kts
Gust
kts
02/11:30pm 9.4 4.4 -4.2 38 5.1 E 13 13 7 7 1025.0 - 0.0
02/11:00pm 9.3 5.1 -4.3 38 5.1 ENE 9 11 5 6 1025.1 - 0.0
02/10:30pm 10.3 5.7 -3.7 37 5.4 ENE 11 13 6 7 1025.1 - 0.0
02/10:00pm 10.5 6.0 -3.6 37 5.5 E 11 13 6 7 1025.4 - 0.0
02/09:30pm 10.6 5.7 -3.1 38 5.4 ENE 13 13 7 7 1025.3 - 0.0
02/09:00pm 11.3 6.9 -2.5 38 5.5 E 11 13 6 7 1025.2 1022.7 0.0
02/08:30pm 12.5 7.7 -2.5 35 6.1 E 13 19 7 10 1025.0 - 0.0
02/08:00pm 12.9 8.2 -1.8 36 6.1 E 13 17 7 9 1024.7 - 0.0
02/07:30pm 13.7 9.5 -1.1 36 6.3 E 11 13 6 7 1024.9 - 0.0
02/07:00pm 14.8 10.3 -0.5 35 6.6 E 13 15 7 8 1024.4 - 0.0
02/06:30pm 16.0 11.5 -0.2 33 7.2 E 13 17 7 9 1024.2 - 0.0
02/06:00pm 17.4 13.3 0.1 31 7.8 E 11 20 6 11 1024.0 1021.5 0.0
02/05:30pm 18.1 14.5 0.3 30 8.1 E 9 19 5 10 1024.0 - 0.0
02/05:00pm 18.5 14.9 0.6 30 8.2 E 9 17 5 9 1023.7 - 0.0
02/04:30pm 18.4 14.0 0.5 30 8.2 ESE 13 20 7 11 1023.7 - 0.0
02/04:00pm 18.5 14.9 0.6 30 8.2 E 9 17 5 9 1023.7 - 0.0
02/03:30pm 18.5 14.2 1.1 31 8.1 E 13 22 7 12 1023.9 - 0.0
02/03:00pm 18.0 13.4 1.5 33 7.6 E 15 26 8 14 1024.1 1021.7 0.0
02/02:30pm 17.2 12.9 1.2 34 7.4 ESE 13 22 7 12 1024.6 - 0.0
02/02:00pm 16.9 12.2 1.0 34 7.3 ENE 15 28 8 15 1025.1 - 0.0
02/01:30pm 16.2 11.6 1.5 37 6.7 ENE 15 22 8 12 1025.3 - 0.0
02/01:00pm 15.4 10.9 1.9 40 6.2 ENE 15 22 8 12 1026.0 - 0.0
02/12:30pm 15.6 10.3 2.1 40 6.2 ESE 19 35 10 19 1026.7 - 0.0
02/12:00pm 15.4 10.6 2.6 42 5.9 ENE 17 26 9 14 1026.9 1024.5 0.0
02/11:30am 13.6 9.2 2.5 47 5.1 ENE 15 28 8 15 1027.5 - 0.0
02/11:00am 14.1 9.5 3.6 49 5.0 E 17 28 9 15 1027.8 - 0.0
02/10:30am 12.8 7.5 3.2 52 4.4 E 20 32 11 17 1028.0 - 0.0
02/10:00am 11.9 6.3 3.4 56 3.9 E 22 30 12 16 1028.3 - 0.0
02/09:30am 11.3 5.8 4.1 61 3.4 ESE 22 30 12 16 1028.3 - 0.0
02/09:00am 10.2 5.0 3.7 64 3.0 ESE 20 30 11 16 1028.4 1026.0 0.0
02/08:30am 9.2 3.7 3.8 69 2.5 ESE 22 32 12 17 1028.2 - 0.0
02/08:00am 8.5 3.3 3.8 72 2.1 ESE 20 30 11 16 1027.8 - 0.0
02/07:30am 7.8 2.6 3.3 73 2.0 ESE 20 32 11 17 1027.4 - 0.0
02/07:00am 7.5 1.9 3.2 74 1.9 ESE 22 32 12 17 1026.8 - 0.0
02/06:30am 7.7 1.6 3.0 72 2.1 SE 24 37 13 20 1026.3 - 0.0
02/06:00am 8.1 1.6 2.8 69 2.3 ESE 26 39 14 21 1025.9 1023.5 0.0
02/05:30am 8.6 1.8 3.0 68 2.5 ESE 28 39 15 21 1025.6 - 0.0
02/05:00am 9.1 2.6 2.4 63 2.9 SE 26 39 14 21 1025.3 - 0.0
02/04:30am 9.5 2.9 2.1 60 3.2 SE 26 37 14 20 1024.8 - 0.0
02/04:00am 10.3 4.0 1.7 55 3.8 SSE 24 32 13 17 1024.8 - 0.0
02/03:30am 10.7 5.4 1.8 54 3.9 SSE 19 28 10 15 1024.9 - 0.0
02/03:00am 10.9 6.3 1.7 53 4.0 SSE 15 20 8 11 1025.0 1022.5 0.0
02/02:30am 11.3 6.4 2.1 53 4.1 S 17 26 9 14 1024.8 - 0.0
02/02:00am 11.5 7.0 2.3 53 4.1 S 15 22 8 12 1024.8 - 0.0
02/01:30am 11.8 6.6 2.5 53 4.2 S 19 26 10 14 1024.9 - 0.0
02/01:00am 11.9 8.4 3.4 56 3.9 SSE 11 17 6 9 1025.1 - 0.0
02/12:30am 12.4 8.1 3.4 54 4.2 S 15 24 8 13 1025.0 - 0.0
02/12:00am 12.9 7.3 3.3 52 4.4 SSE 22 33 12 18 1025.0 1022.5 0.0
 
Date/Time
CST
Temp
°C
App
Temp
°C
Dew
Point
Rel
Hum
%
Delta-T
°C
Wind Press
QNH
hPa
Press
MSL
hPa
Rain
since 9 am
mm
Dir
 
Spd
km/h
Gust
km/h
Spd
kts
Gust
kts
01/11:30pm 13.3 6.4 2.8 49 4.8 SSE 28 41 15 22 1024.7 - 0.0
01/11:00pm 14.0 8.0 3.5 49 4.9 SSE 24 35 13 19 1024.4 - 0.0
01/10:30pm 14.8 8.1 3.6 47 5.3 S 28 43 15 23 1024.2 - 0.0
01/10:00pm 16.0 8.4 2.8 41 6.2 S 32 44 17 24 1024.1 - 0.0
01/09:30pm 17.3 10.9 5.3 45 6.0 S 28 41 15 22 1023.8 - 0.0
01/09:00pm 17.6 12.6 6.5 48 5.7 SSE 22 33 12 18 1023.5 1021.0 0.0
01/08:30pm 18.1 12.8 6.9 48 5.8 S 24 35 13 19 1023.2 - 0.0
01/08:00pm 18.7 13.5 7.2 47 6.0 S 24 32 13 17 1022.9 - 0.0
01/07:30pm 19.4 15.1 7.2 45 6.4 S 19 28 10 15 1022.2 - 0.0
01/07:00pm 20.0 14.8 7.1 43 6.8 S 24 32 13 17 1021.7 - 0.0
01/06:30pm 20.7 16.3 6.6 40 7.4 S 19 28 10 15 1021.3 - 0.0
01/06:00pm 21.5 17.1 6.6 38 7.8 SSW 19 28 10 15 1020.7 1018.2 0.0
01/05:30pm 22.3 17.3 6.5 36 8.3 SSW 22 32 12 17 1020.5 - 0.0
01/05:00pm 23.2 18.1 6.0 33 9.0 S 22 32 12 17 1019.7 - 0.0
01/04:30pm 23.9 20.9 6.2 32 9.4 SSW 11 20 6 11 1019.4 - 0.0
01/04:00pm 24.1 19.5 6.4 32 9.4 S 20 30 11 16 1019.2 - 0.0
01/03:30pm 23.9 19.8 6.2 32 9.4 S 17 30 9 16 1019.2 - 0.0
01/03:00pm 24.6 20.6 6.8 32 9.6 S 17 26 9 14 1019.3 1016.8 0.0
01/02:30pm 23.5 18.9 6.7 34 9.0 S 20 28 11 15 1019.4 - 0.0
01/02:00pm 23.9 19.5 6.7 33 9.2 WSW 19 28 10 15 1019.5 - 0.0
01/01:30pm 23.0 18.5 6.3 34 8.8 S 19 30 10 16 1019.7 - 0.0
01/01:00pm 22.4 18.3 6.2 35 8.5 WSW 17 26 9 14 1020.1 - 0.0
01/12:30pm 22.2 18.4 6.0 35 8.5 SW 15 24 8 13 1020.2 - 0.0
01/12:00pm 20.6 16.0 5.4 37 7.8 SSE 19 24 10 13 1020.5 1018.0 0.0
01/11:30am 20.2 15.4 5.8 39 7.4 SSW 20 28 11 15 1020.8 - 0.0
01/11:00am 19.0 14.1 5.1 40 7.0 SW 20 30 11 16 1021.1 - 0.0
01/10:30am 18.1 13.2 5.3 43 6.4 SW 20 30 11 16 1021.2 - 0.0
01/10:00am 16.9 11.1 4.6 44 6.0 SW 24 32 13 17 1020.8 - 0.0
01/09:30am 15.7 8.3 3.8 45 5.7 SW 32 37 17 20 1020.6 - 0.0
01/09:00am 15.5 8.2 2.3 41 6.1 SW 30 41 16 22 1020.3 1017.7 0.0
01/08:30am 15.4 7.7 0.0 35 6.8 WSW 30 41 16 22 1019.6 - 0.0
01/08:00am 15.6 8.4 -5.4 23 8.3 W 24 30 13 16 1019.1 - 0.0
01/07:30am 16.2 9.7 -6.1 21 8.7 WSW 20 26 11 14 1018.7 - 0.0
01/07:00am 16.9 8.0 -6.8 19 9.2 WSW 32 41 17 22 1018.0 - 0.0
01/06:30am 18.0 10.6 -7.4 17 9.8 SW 24 32 13 17 1017.4 - 0.0
01/06:00am 15.0 9.7 -7.7 20 8.4 W 13 19 7 10 1016.8 1014.3 0.0
01/05:30am 13.5 8.9 -7.8 22 7.8 W 9 11 5 6 1016.4 - 0.0
01/05:00am 14.4 9.8 -8.2 20 8.3 SW 9 11 5 6 1016.0 - 0.0
01/04:30am 16.3 11.3 -8.0 18 9.1 W 11 13 6 7 1015.9 - 0.0
01/04:00am 17.9 12.1 -8.2 16 9.9 SW 15 20 8 11 1015.9 - 0.0
01/03:30am 17.0 12.0 -8.2 17 9.5 SW 11 13 6 7 1015.8 - 0.0
01/03:00am 16.2 11.1 -8.8 17 9.2 WSW 11 13 6 7 1016.1 1013.5 0.0
01/02:30am 16.8 11.3 -9.1 16 9.6 W 13 15 7 8 1016.3 - 0.0
01/02:00am 16.7 11.3 -8.4 17 9.4 W 13 15 7 8 1016.4 - 0.0
01/01:30am 17.5 10.9 -8.6 16 9.8 SW 19 20 10 11 1016.7 - 0.0
01/01:00am 20.6 15.2 -8.7 13 11.4 WNW 13 19 7 10 1016.6 - 0.0
01/12:30am 20.6 14.8 -8.7 13 11.4 WNW 15 20 8 11 1016.7 - 0.0
01/12:24am 20.3 14.6 -8.0 14 11.1 WNW 15 20 8 11 1016.7 - 0.0
01/12:00am 15.2 11.1 -8.2 19 8.6 SE 6 7 3 4 1017.0 1014.4 0.0
 
Date/Time
CST
Temp
°C
App
Temp
°C
Dew
Point
Rel
Hum
%
Delta-T
°C
Wind Press
QNH
hPa
Press
MSL
hPa
Rain
since 9 am
mm
Dir
 
Spd
km/h
Gust
km/h
Spd
kts
Gust
kts
31/11:30pm 12.2 9.2 -8.9 22 7.4 CALM 0 6 0 3 1017.1 - 0.0
31/11:00pm 12.7 8.6 -9.0 21 7.6 ESE 6 6 3 3 1017.0 - 0.0
31/10:30pm 12.1 7.8 -8.9 22 7.4 SSW 7 7 4 4 1017.1 - 0.0
31/10:00pm 14.8 10.1 -8.6 19 8.5 SSW 9 11 5 6 1017.4 - 0.0
31/09:30pm 15.0 10.9 -9.1 18 8.7 SSW 6 7 3 4 1017.4 - 0.0
31/09:00pm 15.3 12.3 -9.6 17 8.9 CALM 0 0 0 0 1017.3 1016.2 0.0
31/08:30pm 17.8 14.8 -9.1 15 10.0 CALM 0 0 0 0 1017.1 - 0.0
31/08:00pm 19.1 16.1 -9.0 14 10.7 CALM 0 0 0 0 1016.7 - 0.0
31/07:30pm 19.6 15.4 -10.5 12 11.2 N 6 7 3 4 1016.4 - 0.0
31/07:00pm 21.6 17.2 -10.1 11 12.1 NNW 7 9 4 5 1016.3 - 0.0
31/06:30pm 23.8 19.0 -10.9 9 13.4 NW 9 13 5 7 1016.2 - 0.0
31/06:00pm 26.4 20.8 -10.5 8 14.7 WNW 13 20 7 11 1016.0 1014.9 0.0
31/05:30pm 27.4 21.8 -11.4 7 15.4 WNW 13 19 7 10 1016.0 - 0.0
31/05:00pm 27.8 23.5 -9.4 8 15.3 WSW 7 13 4 7 1015.9 - 0.0
31/04:30pm 27.4 21.0 -11.4 7 15.4 SW 17 26 9 14 1015.8 - 0.0
31/04:00pm 27.3 21.8 -9.8 8 15.1 N 13 19 7 10 1015.9 - 0.0
31/03:30pm 28.3 22.8 -9.1 8 15.6 W 13 20 7 11 1016.1 - 0.0
31/03:00pm 27.6 21.7 -9.6 8 15.2 W 15 22 8 12 1016.3 1015.2 0.0
31/02:30pm 27.3 21.8 -9.8 8 15.1 W 13 28 7 15 1016.6 - 0.0
31/02:00pm 27.2 21.7 -9.9 8 15.1 NNW 13 24 7 13 1017.0 - 0.0

Other Formats:

Comma delimited format used in spreadsheet applications
http://www.bom.gov.au/fwo/IDS60801/IDS60801.94474.axf

JavaScript Object Notation format (JSON) in row-major order
http://www.bom.gov.au/fwo/IDS60801/IDS60801.94474.json